KMLP - Mullan Pass
Updated: Sun, 20-Aug-2017 5:53am PDT
Clear
Clear
 Wind from NW
Wind: NW at 3 mph , 6 km/h
Temperature : 48°F , 9°C
Dew Point : 30°F , -1°C
Humidity : 50%
Barometer : 30.18 inHg , 1022 hPa
Clouds : Clear
Visibility : 10 miles , 16 km
2017/08/20 12:53 KMLP 201253Z AUTO 32003KT 10SM CLR 09/M01 A3018 RMK AO2 SLP142 T00891011 TSNO

 

KCOE - Coeur d Alene
Updated: Sun, 20-Aug-2017 5:56am PDT
Clear
Clear
 Wind from NE
Wind: NE at 3 mph , 6 km/h
Temperature : 48°F , 9°C
Dew Point : 39°F , 4°C
Humidity : 71%
Barometer : 30.08 inHg , 1018.6 hPa
Clouds : Clear
Visibility : 10 miles , 16 km
2017/08/20 12:56 KCOE 201256Z AUTO 04003KT 10SM CLR 09/04 A3008 RMK AO2 SLP193 T00940044

 

KLWS - Lewiston
Updated: Sun, 20-Aug-2017 5:56am PDT
Clear
Clear
 Wind from S
Wind: S at 3 mph , 6 km/h
Temperature : 57°F , 14°C
Dew Point : 39°F , 4°C
Humidity : 51%
Barometer : 30.07 inHg , 1018.3 hPa
Clouds : Clear
Visibility : 10 miles , 16 km
2017/08/20 12:56 KLWS 201256Z 17003KT 10SM CLR 14/04 A3007 RMK AO2 SLP177 T01390044

 

KGEG - Spokane Intl
Updated: Sun, 20-Aug-2017 5:53am PDT
Mostly cloudy
Mostly cloudy
 Wind from S
Wind: S at 8 mph , 13 km/h
Temperature : 54°F , 12°C
Dew Point : 37°F , 3°C
Humidity : 54%
Barometer : 30.06 inHg , 1017.9 hPa
Clouds : Mostly cloudy
Visibility : 10 miles , 16 km
2017/08/20 12:53 KGEG 201253Z 17007KT 10SM FEW100 SCT180 BKN250 12/03 A3006 RMK AO2 SLP169 FU FEW100 T01220028